Time;durP1;ratioP1;P1;durP2;ratioP2;P2;SDS_P1;SDS_P2;PMS_P1;PMS_P2;Temp;Humidity;BMP_temperature;BMP_pressure;BME280_temperature;BME280_humidity;BME280_pressure;Samples;Min_cycle;Max_cycle;Signal;HPM_P1;HPM_P2
2022/01/03 00:01:14;;;;;;;4.00;0.35;;;;;;;9.53;100.00;100351.06;10358600;28;20056;-62
2022/01/03 00:06:36;;;;;;;1.42;0.20;;;;;;;9.26;100.00;100372.91;10373488;28;20124;-62
2022/01/03 00:11:58;;;;;;;1.55;0.60;;;;;;;9.06;100.00;100416.78;10383480;28;20060;-62
2022/01/03 00:17:19;;;;;;;1.75;0.50;;;;;;;9.02;100.00;100430.88;10399046;28;20055;-62
2022/01/03 00:22:49;;;;;;;0.68;0.20;;;;;;;8.81;100.00;100453.03;10395799;28;20063;-62
2022/01/03 00:28:21;;;;;;;1.92;0.52;;;;;;;8.75;100.00;100469.84;10429637;28;20045;-63
2022/01/03 00:33:44;;;;;;;4.35;0.82;;;;;;;8.74;100.00;100494.16;10397696;28;20061;-62
2022/01/03 00:39:08;;;;;;;1.95;0.32;;;;;;;8.66;100.00;100496.41;10371872;28;20050;-62
2022/01/03 00:44:30;;;;;;;3.58;0.50;;;;;;;8.67;100.00;100505.88;10399765;28;20053;-63
2022/01/03 00:49:53;;;;;;;3.15;0.77;;;;;;;8.61;100.00;100508.84;10356374;28;20065;-62
2022/01/03 00:55:16;;;;;;;2.85;0.50;;;;;;;8.70;100.00;100525.63;10387687;28;20060;-63
2022/01/03 01:00:41;;;;;;;4.38;0.60;;;;;;;8.72;100.00;100536.78;10397386;28;20042;-63
2022/01/03 01:06:06;;;;;;;2.67;0.35;;;;;;;8.80;100.00;100531.97;10403571;28;20038;-62
2022/01/03 01:11:30;;;;;;;6.68;0.90;;;;;;;8.72;100.00;100548.03;10392423;28;20053;-63
2022/01/03 01:16:52;;;;;;;2.70;0.70;;;;;;;8.71;100.00;100548.94;10397058;28;20052;-62
2022/01/03 01:22:14;;;;;;;3.80;0.65;;;;;;;8.69;100.00;100553.41;10390914;28;20052;-63
2022/01/03 01:27:49;;;;;;;4.90;0.70;;;;;;;8.68;100.00;100546.53;10396607;28;20045;-63
2022/01/03 01:33:14;;;;;;;5.13;1.00;;;;;;;8.74;100.00;100566.94;10355605;28;20064;-62
2022/01/03 01:38:38;;;;;;;9.57;1.00;;;;;;;8.78;100.00;100567.59;10369886;28;20050;-62
2022/01/03 01:44:00;;;;;;;7.22;1.13;;;;;;;8.87;100.00;100573.06;10379193;28;20065;-62
2022/01/03 01:49:25;;;;;;;5.60;1.27;;;;;;;8.99;100.00;100587.06;10395605;28;20045;-63
2022/01/03 01:54:57;;;;;;;8.80;1.30;;;;;;;9.04;100.00;100578.03;10393987;28;20113;-63
2022/01/03 02:00:23;;;;;;;13.23;1.80;;;;;;;9.12;100.00;100577.56;10396685;28;20056;-63
2022/01/03 02:05:53;;;;;;;8.32;1.63;;;;;;;9.23;100.00;100580.34;10382398;28;20065;-63
2022/01/03 02:11:27;;;;;;;13.68;1.48;;;;;;;9.25;100.00;100579.31;10363007;28;20054;-63
2022/01/03 02:16:49;;;;;;;11.43;1.60;;;;;;;9.33;100.00;100587.44;10355617;28;20054;-63
2022/01/03 02:22:11;;;;;;;14.82;2.00;;;;;;;9.40;100.00;100578.34;10355540;28;20157;-62
2022/01/03 02:27:33;;;;;;;16.92;1.95;;;;;;;9.43;100.00;100572.09;10383092;28;20695;-62
2022/01/03 02:32:54;;;;;;;16.13;2.00;;;;;;;9.48;100.00;100575.25;10433857;28;20045;-61
2022/01/03 02:38:17;;;;;;;11.98;1.95;;;;;;;9.57;100.00;100585.91;10398943;28;20466;-62
2022/01/03 02:43:39;;;;;;;11.02;1.95;;;;;;;9.60;100.00;100580.50;10409184;28;20102;-62
2022/01/03 02:49:03;;;;;;;11.15;2.00;;;;;;;9.64;100.00;100577.59;10443243;28;20041;-62
2022/01/03 02:54:25;;;;;;;17.67;2.20;;;;;;;9.70;100.00;100581.56;10415314;28;20052;-62
2022/01/03 02:59:46;;;;;;;19.77;2.50;;;;;;;9.75;100.00;100584.72;10401699;28;20107;-63
2022/01/03 03:05:09;;;;;;;17.17;2.72;;;;;;;9.79;100.00;100586.16;10438007;28;20053;-64
2022/01/03 03:10:31;;;;;;;27.00;2.92;;;;;;;9.87;100.00;100583.91;10430361;28;20045;-63
2022/01/03 03:15:53;;;;;;;16.40;2.33;;;;;;;9.87;100.00;100568.28;10401292;28;20052;-63
2022/01/03 03:21:14;;;;;;;19.85;2.75;;;;;;;9.89;100.00;100587.25;10404577;28;20076;-63
2022/01/03 03:26:36;;;;;;;20.55;2.70;;;;;;;9.90;100.00;100584.53;10390297;28;20045;-62
2022/01/03 03:31:58;;;;;;;17.88;2.47;;;;;;;9.97;99.77;100588.41;10408352;28;20061;-63
2022/01/03 03:37:23;;;;;;;20.73;2.42;;;;;;;9.93;100.00;100586.09;10426990;28;20044;-62
2022/01/03 03:42:44;;;;;;;18.15;2.53;;;;;;;9.91;100.00;100595.78;10439105;28;20049;-62
2022/01/03 03:48:07;;;;;;;17.92;2.80;;;;;;;9.87;100.00;100589.13;10411739;28;20045;-63
2022/01/03 03:53:28;;;;;;;17.02;2.95;;;;;;;9.84;100.00;100589.31;10406018;28;20143;-62
2022/01/03 03:58:50;;;;;;;27.20;2.85;;;;;;;9.84;100.00;100594.53;10425625;28;20068;-63
2022/01/03 04:04:12;;;;;;;22.20;2.85;;;;;;;9.78;100.00;100584.50;10361781;28;20046;-63
2022/01/03 04:09:33;;;;;;;20.80;3.00;;;;;;;9.80;100.00;100590.44;10358113;28;20046;-63
2022/01/03 04:14:55;;;;;;;16.95;2.63;;;;;;;9.82;100.00;100586.78;10358616;28;20418;-63
2022/01/03 04:20:18;;;;;;;20.98;3.17;;;;;;;9.89;99.87;100579.44;10390732;28;20072;-65
2022/01/03 04:25:39;;;;;;;29.30;2.92;;;;;;;9.83;99.64;100572.03;10397931;28;20531;-64
2022/01/03 04:31:01;;;;;;;25.10;2.85;;;;;;;9.88;99.19;100565.59;10398569;28;20060;-64
2022/01/03 04:36:24;;;;;;;26.33;3.25;;;;;;;9.91;97.89;100581.00;10404867;28;20053;-64
2022/01/03 04:41:46;;;;;;;19.17;2.90;;;;;;;9.93;97.30;100567.88;10440667;28;20049;-63
2022/01/03 04:47:08;;;;;;;31.90;3.20;;;;;;;9.99;96.36;100578.75;10398848;28;20048;-63
2022/01/03 04:52:29;;;;;;;26.05;3.22;;;;;;;9.98;96.47;100573.63;10392869;28;20055;-64
2022/01/03 04:57:53;;;;;;;23.02;3.40;;;;;;;10.03;95.99;100579.41;10357545;28;20054;-63
2022/01/03 05:03:16;;;;;;;25.95;3.60;;;;;;;10.03;95.01;100571.59;10359017;28;20060;-63
2022/01/03 05:08:37;;;;;;;25.25;2.83;;;;;;;10.07;95.16;100575.63;10360359;28;20631;-63
2022/01/03 05:13:59;;;;;;;27.48;3.95;;;;;;;10.08;94.37;100592.94;10407508;28;20058;-63
2022/01/03 05:19:21;;;;;;;23.73;2.60;;;;;;;10.06;95.14;100584.38;10415381;28;20117;-62
2022/01/03 05:24:43;;;;;;;26.33;3.10;;;;;;;10.08;94.11;100585.97;10357931;28;20510;-63
2022/01/03 05:30:06;;;;;;;38.25;3.55;;;;;;;10.04;95.37;100588.88;10383866;28;20045;-63
2022/01/03 05:35:28;;;;;;;25.40;3.80;;;;;;;10.05;95.53;100587.91;10416061;28;20055;-63
2022/01/03 05:40:50;;;;;;;30.38;3.78;;;;;;;10.07;95.37;100593.88;10365052;28;20072;-63
2022/01/03 05:46:12;;;;;;;26.15;3.90;;;;;;;10.07;95.46;100592.13;10365117;28;20072;-64
2022/01/03 05:51:34;;;;;;;24.67;2.92;;;;;;;10.06;95.81;100592.19;10365682;28;20049;-64
2022/01/03 05:56:56;;;;;;;31.27;3.33;;;;;;;10.09;94.50;100599.81;10404140;28;20049;-63
2022/01/03 06:02:18;;;;;;;22.60;3.42;;;;;;;10.07;94.02;100586.06;10396362;28;20046;-66
2022/01/03 06:07:40;;;;;;;17.35;2.88;;;;;;;10.01;95.67;100600.31;10377514;28;20041;-64
2022/01/03 06:13:01;;;;;;;24.33;3.15;;;;;;;10.01;94.90;100594.28;10385902;28;20053;-62
2022/01/03 06:18:24;;;;;;;22.88;3.25;;;;;;;10.00;95.30;100600.44;10401414;28;20049;-64
2022/01/03 06:23:46;;;;;;;24.50;3.15;;;;;;;9.99;95.00;100596.16;10398137;28;20063;-63
2022/01/03 06:29:10;;;;;;;22.45;3.13;;;;;;;9.99;94.47;100588.34;10403744;28;20048;-63
2022/01/03 06:34:31;;;;;;;25.20;3.25;;;;;;;10.03;94.51;100584.63;10397487;28;20058;-63
2022/01/03 06:39:53;;;;;;;26.48;3.80;;;;;;;10.05;94.15;100587.91;10386027;28;20049;-63
2022/01/03 06:45:16;;;;;;;33.47;3.53;;;;;;;10.05;93.95;100587.91;10399052;28;20061;-64
2022/01/03 06:50:38;;;;;;;22.92;2.97;;;;;;;10.08;94.76;100587.72;10389218;28;20049;-64
2022/01/03 06:55:59;;;;;;;23.05;3.20;;;;;;;10.07;94.36;100593.88;10434811;28;20069;-64
2022/01/03 07:01:21;;;;;;;23.27;4.40;;;;;;;10.10;93.98;100606.69;10362288;28;20058;-64
2022/01/03 07:06:43;;;;;;;32.67;3.67;;;;;;;10.06;93.92;100595.66;10389876;28;20124;-64
2022/01/03 07:12:05;;;;;;;23.15;3.08;;;;;;;10.07;94.24;100586.06;10402558;28;20061;-65
2022/01/03 07:23:08;;;;;;;21.58;3.80;;;;;;;10.11;93.72;100592.75;10389379;28;20058;-64
2022/01/03 07:28:29;;;;;;;27.45;3.63;;;;;;;10.11;93.07;100588.38;10365900;28;20056;-64
2022/01/03 07:33:51;;;;;;;27.48;4.05;;;;;;;10.17;93.29;100587.13;10412016;28;20446;-65
2022/01/03 07:39:12;;;;;;;24.27;3.92;;;;;;;10.14;93.63;100584.72;10380073;28;20056;-66
2022/01/03 07:44:34;;;;;;;21.13;3.03;;;;;;;10.16;93.48;100588.06;10371385;28;20054;-64
2022/01/03 07:49:56;;;;;;;26.08;3.75;;;;;;;10.21;91.81;100591.19;10397279;28;20064;-64
2022/01/03 07:55:19;;;;;;;24.98;3.67;;;;;;;10.22;92.23;100587.66;10435391;28;20144;-66
2022/01/03 08:00:41;;;;;;;25.88;3.65;;;;;;;10.23;91.98;100591.91;10399568;28;20057;-64
2022/01/03 08:06:05;;;;;;;24.73;3.78;;;;;;;10.19;91.75;100587.88;10382171;28;20065;-64
2022/01/03 08:11:29;;;;;;;23.92;3.45;;;;;;;10.23;92.09;100597.13;10372491;28;20038;-64
2022/01/03 08:16:51;;;;;;;25.00;3.80;;;;;;;10.24;91.58;100597.03;10376397;28;20056;-65
2022/01/03 08:22:13;;;;;;;27.83;4.05;;;;;;;10.24;90.76;100593.59;10358719;28;20053;-65
2022/01/03 08:27:34;;;;;;;22.05;2.85;;;;;;;10.28;91.23;100595.06;10357764;28;20387;-64
2022/01/03 08:32:56;;;;;;;23.88;3.42;;;;;;;10.30;90.71;100598.41;10371693;28;20080;-64
2022/01/03 08:38:19;;;;;;;34.22;4.20;;;;;;;10.31;90.83;100589.66;10414330;28;20136;-64
2022/01/03 08:43:41;;;;;;;26.60;4.22;;;;;;;10.27;91.69;100583.78;10389559;28;20069;-65
2022/01/03 08:49:03;;;;;;;28.70;4.10;;;;;;;10.34;90.79;100592.88;10412071;28;20446;-64
2022/01/03 08:54:25;;;;;;;28.98;3.53;;;;;;;10.33;91.03;100598.19;10425598;28;20100;-66
2022/01/03 08:59:48;;;;;;;30.30;3.85;;;;;;;10.37;90.76;100589.22;10408455;28;20076;-65
2022/01/03 09:05:10;;;;;;;27.33;4.25;;;;;;;10.43;90.24;100589.63;10356513;28;20491;-64
2022/01/03 09:10:32;;;;;;;23.92;3.67;;;;;;;10.47;89.84;100595.50;10383928;28;20052;-64
2022/01/03 09:15:53;;;;;;;38.00;4.43;;;;;;;10.46;89.48;100588.63;10411190;28;20053;-64
2022/01/03 09:21:15;;;;;;;26.40;3.28;;;;;;;10.48;89.86;100581.53;10357498;28;20046;-65
2022/01/03 09:32:17;;;;;;;31.25;3.70;;;;;;;10.59;88.25;100578.09;10402891;28;20466;-64
2022/01/03 09:37:40;;;;;;;31.65;4.20;;;;;;;10.54;89.24;100584.56;10396819;28;20502;-65
2022/01/03 09:43:02;;;;;;;24.67;3.35;;;;;;;10.60;88.02;100581.50;10355395;28;20525;-64
2022/01/03 09:48:24;;;;;;;22.23;3.75;;;;;;;10.59;88.04;100595.47;10356333;28;20048;-64
2022/01/03 09:53:49;;;;;;;24.27;3.72;;;;;;;10.64;88.80;100586.41;10400376;28;20048;-64
2022/01/03 09:59:11;;;;;;;28.35;3.70;;;;;;;10.65;88.54;100572.44;10371769;28;20046;-64
2022/01/03 10:04:34;;;;;;;27.00;3.45;;;;;;;10.65;89.12;100580.25;10354758;28;20062;-64
2022/01/03 10:09:57;;;;;;;30.98;3.63;;;;;;;10.68;88.71;100574.84;10357011;28;20042;-65
2022/01/03 10:15:19;;;;;;;21.92;3.67;;;;;;;10.72;87.84;100581.50;10374374;28;20062;-64
2022/01/03 10:20:40;;;;;;;26.13;3.65;;;;;;;10.71;88.01;100585.06;10355805;28;20042;-64
2022/01/03 10:26:19;;;;;;;29.92;3.53;;;;;;;10.73;87.87;100566.69;10355654;28;20062;-65
2022/01/03 10:31:42;;;;;;;27.30;3.58;;;;;;;10.80;87.52;100558.34;10367900;28;20057;-64
2022/01/03 10:37:12;;;;;;;30.23;3.63;;;;;;;10.83;87.61;100552.91;10391516;28;20157;-65
2022/01/03 10:42:36;;;;;;;23.67;3.28;;;;;;;10.78;87.65;100552.41;10355749;28;20261;-65
2022/01/03 10:48:00;;;;;;;28.77;3.63;;;;;;;10.82;88.17;100543.44;10382066;28;20046;-65
2022/01/03 10:53:35;;;;;;;29.42;3.97;;;;;;;10.86;87.29;100539.66;10393850;28;20061;-65
2022/01/03 10:59:11;;;;;;;29.73;3.70;;;;;;;10.87;86.76;100545.72;10369630;28;20054;-64
2022/01/03 11:15:58;;;;;;;21.45;3.22;;;;;;;11.08;84.72;100552.84;10394378;28;20058;-66
2022/01/03 11:21:24;;;;;;;17.75;2.78;;;;;;;11.08;85.24;100537.19;10374755;28;20137;-65
2022/01/03 11:26:49;;;;;;;31.23;3.63;;;;;;;11.08;83.88;100516.34;10362055;28;20088;-65
2022/01/03 11:32:11;;;;;;;25.10;3.33;;;;;;;10.96;83.66;100516.38;10375885;28;20056;-65
2022/01/03 11:37:36;;;;;;;27.67;3.33;;;;;;;11.06;82.87;100523.44;10406120;28;20056;-65
2022/01/03 11:42:59;;;;;;;21.83;3.88;;;;;;;11.11;82.39;100510.91;10364555;28;20394;-64
2022/01/03 11:48:21;;;;;;;24.48;3.08;;;;;;;11.13;83.49;100501.19;10360400;28;20045;-65
2022/01/03 11:53:47;;;;;;;24.02;3.30;;;;;;;11.09;83.12;100502.34;10404365;28;20057;-64
2022/01/03 12:04:40;;;;;;;19.08;2.80;;;;;;;11.01;82.95;100483.81;10408370;28;20054;-65
2022/01/03 12:10:09;;;;;;;30.23;3.30;;;;;;;11.03;82.85;100474.13;10366335;28;20041;-65
2022/01/03 12:15:34;;;;;;;20.05;3.45;;;;;;;11.00;81.96;100474.31;10413506;28;20080;-65
2022/01/03 12:20:57;;;;;;;18.60;3.33;;;;;;;11.09;81.84;100471.03;10393308;28;20598;-65
2022/01/03 12:26:19;;;;;;;20.02;3.13;;;;;;;11.12;81.73;100464.78;10359208;28;20056;-64
2022/01/03 12:32:05;;;;;;;23.85;3.30;;;;;;;11.16;80.31;100461.84;10391714;28;20055;-64
2022/01/03 12:37:27;;;;;;;23.40;3.60;;;;;;;11.19;80.43;100445.97;10414452;28;20362;-65
2022/01/03 12:42:58;;;;;;;21.45;2.80;;;;;;;11.19;80.55;100435.53;10357565;28;20054;-65
2022/01/03 12:48:21;;;;;;;19.70;3.20;;;;;;;11.20;81.49;100437.22;10366022;28;20072;-65
2022/01/03 12:53:49;;;;;;;15.10;3.03;;;;;;;11.12;80.96;100426.47;10382062;28;20056;-65
2022/01/03 12:59:13;;;;;;;16.92;2.58;;;;;;;11.05;80.68;100422.69;10399077;28;20686;-65
2022/01/03 13:04:46;;;;;;;19.30;2.88;;;;;;;11.14;80.62;100416.78;10367506;28;20502;-65
2022/01/03 13:10:16;;;;;;;27.03;3.30;;;;;;;11.16;80.06;100420.09;10361106;28;20075;-66
2022/01/03 13:15:38;;;;;;;23.27;3.65;;;;;;;11.14;80.71;100415.91;10397641;28;20401;-65
2022/01/03 13:21:00;;;;;;;28.38;3.30;;;;;;;11.16;80.91;100416.66;10384380;28;20418;-65
2022/01/03 13:26:24;;;;;;;21.60;3.08;;;;;;;11.12;80.32;100396.97;10356141;28;20061;-64
2022/01/03 13:31:45;;;;;;;22.13;3.25;;;;;;;11.09;80.43;100387.56;10367811;28;20513;-65
2022/01/03 13:37:09;;;;;;;17.85;3.22;;;;;;;11.07;80.20;100389.47;10387496;28;20045;-65
2022/01/03 13:42:59;;;;;;;23.83;3.17;;;;;;;11.08;79.92;100396.34;10356519;28;20054;-63
2022/01/03 13:54:03;;;;;;;28.25;3.63;;;;;;;11.05;79.72;100387.91;10403115;28;20053;-65
2022/01/03 13:59:27;;;;;;;22.63;3.50;;;;;;;10.98;80.11;100378.91;10360636;28;20594;-64
2022/01/03 14:04:56;;;;;;;23.42;3.28;;;;;;;11.07;80.63;100373.81;10354934;28;20111;-64
2022/01/03 14:10:20;;;;;;;23.05;2.88;;;;;;;11.00;81.40;100376.97;10360094;28;20046;-65
2022/01/03 14:16:00;;;;;;;23.63;3.05;;;;;;;11.03;80.26;100356.75;10390255;28;20058;-66
2022/01/03 14:21:30;;;;;;;21.33;3.40;;;;;;;11.08;79.90;100349.38;10355350;28;20045;-66
2022/01/03 14:26:59;;;;;;;22.40;3.47;;;;;;;11.04;79.74;100342.75;10355511;28;20061;-66
2022/01/03 14:32:21;;;;;;;28.75;3.42;;;;;;;10.99;79.85;100333.59;10405438;28;20046;-65
2022/01/03 14:37:43;;;;;;;23.88;3.08;;;;;;;10.95;79.80;100316.53;10417343;28;20052;-64
2022/01/03 14:43:04;;;;;;;20.40;3.28;;;;;;;11.00;79.70;100314.38;10348841;28;20522;-68
2022/01/03 14:48:26;;;;;;;23.10;2.85;;;;;;;10.95;80.36;100311.31;10391434;28;20037;-67
2022/01/03 14:53:48;;;;;;;20.48;3.30;;;;;;;10.93;79.23;100308.78;10431083;28;20151;-68
2022/01/03 14:59:15;;;;;;;23.48;3.33;;;;;;;10.86;79.63;100291.97;10381727;28;20395;-68
2022/01/03 15:04:36;;;;;;;25.52;3.10;;;;;;;10.76;81.13;100300.56;10366376;28;20045;-67
2022/01/03 15:10:17;;;;;;;20.17;2.60;;;;;;;10.68;80.76;100293.31;10405489;28;20533;-67
2022/01/03 15:15:43;;;;;;;24.83;3.00;;;;;;;10.59;83.10;100291.38;10394774;28;20092;-65
2022/01/03 15:21:05;;;;;;;24.52;3.20;;;;;;;10.51;82.00;100289.44;10379265;28;20051;-65
2022/01/03 15:26:26;;;;;;;22.73;3.33;;;;;;;10.55;82.03;100282.13;10404679;28;20061;-65
2022/01/03 15:31:48;;;;;;;27.77;3.17;;;;;;;10.39;88.41;100285.97;10393697;28;20042;-66
2022/01/03 15:37:10;;;;;;;25.55;3.40;;;;;;;10.12;89.80;100287.09;10421978;28;20059;-65
2022/01/03 15:42:32;;;;;;;27.65;3.50;;;;;;;10.03;91.57;100287.75;10428955;28;20049;-65
2022/01/03 15:47:53;;;;;;;20.92;3.22;;;;;;;10.03;90.97;100290.38;10389330;28;20064;-65
2022/01/03 15:53:15;;;;;;;27.00;3.50;;;;;;;9.96;90.33;100308.16;10367007;28;20048;-65
2022/01/03 15:58:36;;;;;;;30.63;4.43;;;;;;;10.14;88.47;100303.44;10415816;28;20057;-65
2022/01/03 16:04:01;;;;;;;21.42;3.13;;;;;;;10.17;87.85;100291.03;10375289;28;20053;-65
2022/01/03 16:09:22;;;;;;;26.58;3.53;;;;;;;10.02;88.88;100293.91;10414024;28;20112;-65
2022/01/03 16:14:44;;;;;;;32.17;3.85;;;;;;;10.04;87.97;100284.22;10353747;28;20418;-65
2022/01/03 16:20:06;;;;;;;32.47;4.13;;;;;;;9.96;89.36;100286.47;10351923;28;20050;-66
2022/01/03 16:25:29;;;;;;;28.42;3.53;;;;;;;9.96;89.26;100282.13;10353318;28;20491;-65
2022/01/03 16:30:51;;;;;;;30.05;3.97;;;;;;;10.07;87.35;100281.38;10383752;28;20141;-65
2022/01/03 16:36:21;;;;;;;21.70;3.03;;;;;;;9.97;88.60;100272.53;10417452;28;20053;-65
2022/01/03 16:41:42;;;;;;;22.10;3.47;;;;;;;9.91;89.74;100262.53;10393302;28;20045;-67
2022/01/03 16:47:05;;;;;;;29.85;4.00;;;;;;;9.99;88.52;100265.47;10384623;28;20049;-65
2022/01/03 16:52:27;;;;;;;24.70;3.70;;;;;;;10.04;87.14;100258.19;10373525;28;20045;-64
2022/01/03 16:57:48;;;;;;;25.63;3.78;;;;;;;10.11;87.21;100251.59;10368447;28;20081;-65
2022/01/03 17:03:10;;;;;;;24.02;3.63;;;;;;;10.13;86.14;100260.13;10350907;28;20510;-65
2022/01/03 17:08:32;;;;;;;26.17;3.33;;;;;;;10.05;86.25;100252.00;10337352;28;20157;-65
2022/01/03 17:13:54;;;;;;;17.65;2.60;;;;;;;10.03;86.70;100251.31;10391691;28;20067;-65
2022/01/03 17:19:15;;;;;;;28.60;3.38;;;;;;;10.02;86.20;100241.84;10392492;28;20053;-65
2022/01/03 17:24:38;;;;;;;20.33;3.75;;;;;;;9.87;87.45;100235.91;10351137;28;20049;-65
2022/01/03 17:29:59;;;;;;;22.70;3.30;;;;;;;9.89;86.44;100228.00;10360432;28;20054;-66
2022/01/03 17:35:21;;;;;;;23.27;3.30;;;;;;;9.76;86.42;100232.38;10359040;28;20072;-66
2022/01/03 17:40:45;;;;;;;24.40;2.92;;;;;;;9.82;86.32;100237.16;10358444;28;20049;-65
2022/01/03 17:46:06;;;;;;;23.90;3.05;;;;;;;9.86;86.72;100223.00;10356767;28;20152;-66
2022/01/03 17:51:28;;;;;;;21.55;2.83;;;;;;;9.82;86.82;100229.34;10363480;28;20045;-65
2022/01/03 17:56:49;;;;;;;14.27;2.72;;;;;;;9.89;85.94;100207.16;10349391;28;20045;-66
2022/01/03 18:02:31;;;;;;;19.83;2.67;;;;;;;9.81;86.77;100214.69;10352053;28;20065;-66
2022/01/03 18:07:54;;;;;;;21.83;3.10;;;;;;;9.79;86.72;100207.00;10393719;28;20144;-66
2022/01/03 18:13:17;;;;;;;18.83;3.08;;;;;;;9.74;87.59;100196.06;10400776;28;20059;-64
2022/01/03 18:18:38;;;;;;;21.52;3.30;;;;;;;9.76;87.70;100188.13;10398442;28;20050;-65
2022/01/03 18:24:00;;;;;;;28.02;3.45;;;;;;;9.77;88.46;100187.19;10357376;28;20046;-65
2022/01/03 18:29:22;;;;;;;20.05;3.30;;;;;;;9.74;89.20;100177.84;10371121;28;20053;-65
2022/01/03 18:34:45;;;;;;;18.13;3.30;;;;;;;9.71;89.00;100193.69;10394401;28;20089;-65
2022/01/03 18:40:08;;;;;;;22.50;3.15;;;;;;;9.71;88.80;100172.03;10358215;28;20050;-65
2022/01/03 18:45:30;;;;;;;23.35;3.72;;;;;;;9.66;89.56;100179.34;10406476;28;20053;-65
2022/01/03 18:50:52;;;;;;;23.08;3.45;;;;;;;9.73;88.96;100170.97;10397882;28;20051;-65
2022/01/03 18:56:13;;;;;;;16.75;3.20;;;;;;;9.70;89.47;100175.59;10356358;28;20069;-65
2022/01/03 19:01:35;;;;;;;17.08;2.78;;;;;;;9.64;89.69;100158.63;10382784;28;20485;-66
2022/01/03 19:06:57;;;;;;;17.10;3.28;;;;;;;9.64;89.75;100163.84;10398055;28;20100;-65
2022/01/03 19:12:19;;;;;;;20.27;3.42;;;;;;;9.64;90.27;100152.59;10403065;28;20045;-65
2022/01/03 19:17:40;;;;;;;20.58;3.20;;;;;;;9.58;90.34;100153.84;10397394;28;20059;-65
2022/01/03 19:23:02;;;;;;;13.50;3.55;;;;;;;9.61;89.47;100145.00;10414271;28;20083;-65
2022/01/03 19:28:24;;;;;;;13.23;3.10;;;;;;;9.61;89.87;100139.78;10372194;28;20144;-66
2022/01/03 19:39:13;;;;;;;17.20;3.63;;;;;;;9.49;90.86;100130.25;10397878;28;20041;-65
2022/01/03 19:44:34;;;;;;;19.70;3.30;;;;;;;9.58;89.91;100119.22;10372898;28;20100;-65
2022/01/03 19:49:57;;;;;;;17.27;3.10;;;;;;;9.53;89.75;100125.69;10362858;28;20136;-66
2022/01/03 19:55:19;;;;;;;23.75;3.15;;;;;;;9.56;89.67;100115.88;10371882;28;20113;-64
2022/01/03 20:00:41;;;;;;;18.60;3.13;;;;;;;9.49;90.75;100119.84;10365640;28;20053;-65
2022/01/03 20:06:03;;;;;;;13.40;2.45;;;;;;;9.54;90.10;100120.38;10358914;28;20069;-64
2022/01/03 20:11:25;;;;;;;17.90;2.88;;;;;;;9.58;89.49;100129.63;10371619;28;20730;-64
2022/01/03 20:16:47;;;;;;;10.95;2.72;;;;;;;9.55;90.00;100120.25;10411017;28;20060;-63
2022/01/03 20:22:09;;;;;;;19.38;3.00;;;;;;;9.58;89.75;100114.00;10358885;28;20555;-64
2022/01/03 20:27:30;;;;;;;12.40;2.55;;;;;;;9.52;89.47;100109.22;10344937;28;20053;-64
2022/01/03 20:32:53;;;;;;;16.33;2.90;;;;;;;9.54;89.97;100112.56;10358218;28;20475;-63
2022/01/03 20:38:14;;;;;;;15.45;2.80;;;;;;;9.50;90.24;100095.50;10421982;28;20147;-64
2022/01/03 20:43:36;;;;;;;14.93;2.70;;;;;;;9.53;89.75;100095.28;10432900;28;20583;-64
2022/01/03 20:48:58;;;;;;;16.73;2.63;;;;;;;9.58;89.01;100095.81;10412738;28;20469;-64
2022/01/03 20:54:21;;;;;;;14.60;2.95;;;;;;;9.51;89.50;100091.16;10415671;28;20081;-63
2022/01/03 20:59:42;;;;;;;15.10;2.65;;;;;;;9.52;90.17;100092.81;10357685;28;20050;-64
2022/01/03 21:05:04;;;;;;;22.20;2.85;;;;;;;9.51;90.32;100111.97;10357024;28;20466;-64
2022/01/03 21:10:26;;;;;;;17.92;2.90;;;;;;;9.47;90.39;100090.50;10359666;28;20042;-64
2022/01/03 21:15:48;;;;;;;11.60;2.53;;;;;;;9.33;91.06;100077.66;10356009;28;20054;-64
2022/01/03 21:21:10;;;;;;;14.68;3.10;;;;;;;9.32;91.61;100073.41;10357114;28;20537;-64
2022/01/03 21:26:32;;;;;;;14.63;3.38;;;;;;;9.28;91.77;100078.94;10356009;28;20062;-63
2022/01/03 21:31:54;;;;;;;16.15;3.17;;;;;;;9.17;92.02;100071.06;10375456;28;20372;-63
2022/01/03 21:37:16;;;;;;;9.02;2.60;;;;;;;9.10;93.46;100055.06;10397312;28;20495;-64
2022/01/03 21:42:38;;;;;;;12.65;2.85;;;;;;;9.20;92.85;100050.88;10356052;28;20053;-64
2022/01/03 21:48:02;;;;;;;10.23;2.88;;;;;;;9.21;93.17;100057.75;10387542;28;20061;-64
2022/01/03 21:53:28;;;;;;;16.02;3.42;;;;;;;9.16;92.94;100049.47;10393018;28;20503;-64
2022/01/03 21:58:50;;;;;;;15.18;3.35;;;;;;;9.16;92.62;100028.66;10397968;28;20063;-64
2022/01/03 22:04:11;;;;;;;15.35;3.47;;;;;;;9.09;93.35;100043.00;10385514;28;20057;-64
2022/01/03 22:09:34;;;;;;;12.10;3.05;;;;;;;9.07;94.25;100037.09;10368902;28;20045;-64
2022/01/03 22:14:56;;;;;;;16.17;3.42;;;;;;;9.07;94.59;100031.06;10357806;28;20058;-64
2022/01/03 22:20:18;;;;;;;10.63;3.13;;;;;;;9.00;94.36;100016.84;10371716;28;20049;-64
2022/01/03 22:25:40;;;;;;;18.70;3.92;;;;;;;8.94;95.06;100023.31;10395627;28;20136;-64
2022/01/03 22:31:02;;;;;;;11.20;3.35;;;;;;;9.02;94.54;100015.78;10382064;28;20048;-64
2022/01/03 22:36:24;;;;;;;15.55;4.13;;;;;;;9.01;94.86;100008.09;10379726;28;20067;-64
2022/01/03 22:41:45;;;;;;;14.32;4.13;;;;;;;8.90;95.15;100006.25;10372470;28;20383;-64
2022/01/03 22:47:10;;;;;;;14.63;3.63;;;;;;;8.90;95.88;100003.66;10389438;28;20077;-63
2022/01/03 22:52:34;;;;;;;15.15;4.22;;;;;;;8.85;96.22;99997.97;10414045;28;20056;-63
2022/01/03 22:57:56;;;;;;;9.85;3.83;;;;;;;8.89;96.35;99999.41;10393478;28;20497;-64
2022/01/03 23:03:18;;;;;;;16.25;3.80;;;;;;;8.88;96.09;99987.34;10360820;28;20046;-64
2022/01/03 23:08:42;;;;;;;20.00;4.28;;;;;;;8.99;95.71;99979.63;10361297;28;20057;-64
2022/01/03 23:14:04;;;;;;;19.30;4.22;;;;;;;9.01;95.81;99975.16;10390555;28;20070;-64
2022/01/03 23:19:25;;;;;;;19.10;4.25;;;;;;;9.02;96.16;99965.56;10360869;28;20395;-64
2022/01/03 23:24:47;;;;;;;12.82;4.10;;;;;;;9.07;95.92;99956.50;10360873;28;20498;-64
2022/01/03 23:30:11;;;;;;;24.63;4.45;;;;;;;9.02;96.67;99957.78;10373345;28;20053;-64
2022/01/03 23:35:33;;;;;;;13.77;4.15;;;;;;;8.99;96.61;99943.25;10358770;28;20414;-64
2022/01/03 23:40:55;;;;;;;16.92;4.65;;;;;;;9.00;96.28;99939.72;10409259;28;20046;-63
2022/01/03 23:46:17;;;;;;;13.43;4.28;;;;;;;9.05;96.63;99924.59;10384408;28;20148;-64
2022/01/03 23:51:39;;;;;;;12.32;4.65;;;;;;;8.98;96.59;99918.19;10391259;28;20524;-63
2022/01/03 23:57:00;;;;;;;13.77;4.20;;;;;;;8.99;97.22;99912.06;10436944;28;20409;-64
